TimeCDT,TemperatureF,Dew PointF,Humidity,Sea Level PressureIn,VisibilityMPH,Wind Direction,Wind SpeedMPH,Gust SpeedMPH,PrecipitationIn,Events,Conditions,WindDirDegrees,DateUTC
12:53 AM,53.1,34.0,48,29.88,10.0,South,17.3,24.2,N/A,,Clear,190,2012-10-09 05:53:00
1:53 AM,51.1,35.1,54,29.88,10.0,South,12.7,-,N/A,,Clear,190,2012-10-09 06:53:00
2:53 AM,50.0,35.6,58,29.87,10.0,South,11.5,-,N/A,,Clear,180,2012-10-09 07:53:00
3:53 AM,50.0,36.0,59,29.84,10.0,South,11.5,-,N/A,,Clear,190,2012-10-09 08:53:00
4:53 AM,48.9,36.0,61,29.83,10.0,South,10.4,-,N/A,,Clear,180,2012-10-09 09:53:00
5:53 AM,46.0,36.0,68,29.84,10.0,South,6.9,-,N/A,,Clear,180,2012-10-09 10:53:00
6:53 AM,45.0,36.0,71,29.84,10.0,South,4.6,-,N/A,,Clear,180,2012-10-09 11:53:00
7:53 AM,45.0,37.0,74,29.84,10.0,South,5.8,-,N/A,,Clear,180,2012-10-09 12:53:00
8:53 AM,51.1,37.9,61,29.88,10.0,SW,5.8,-,N/A,,Clear,220,2012-10-09 13:53:00
9:53 AM,54.0,39.9,59,29.90,10.0,WSW,6.9,-,N/A,,Clear,240,2012-10-09 14:53:00
10:53 AM,57.9,41.0,53,29.91,10.0,NW,3.5,-,N/A,,Clear,310,2012-10-09 15:53:00
11:53 AM,62.1,42.1,48,29.91,10.0,North,8.1,-,N/A,,Clear,350,2012-10-09 16:53:00
12:53 PM,62.1,39.0,43,29.92,10.0,North,12.7,23.0,N/A,,Clear,10,2012-10-09 17:53:00
1:53 PM,64.0,41.0,43,29.94,9.0,NNE,17.3,26.5,N/A,,Clear,30,2012-10-09 18:53:00
2:53 PM,62.1,42.1,48,29.96,10.0,NNE,21.9,31.1,N/A,,Overcast,20,2012-10-09 19:53:00
3:53 PM,59.0,41.0,51,30.00,10.0,North,21.9,29.9,N/A,,Overcast,360,2012-10-09 20:53:00
4:53 PM,61.0,39.0,44,30.01,10.0,NNE,13.8,-,N/A,,Scattered Clouds,20,2012-10-09 21:53:00
5:53 PM,61.0,35.1,38,30.02,10.0,North,17.3,23.0,N/A,,Clear,10,2012-10-09 22:53:00
6:53 PM,57.9,32.0,37,30.04,10.0,NNE,10.4,-,N/A,,Clear,20,2012-10-09 23:53:00
7:53 PM,54.0,27.0,35,30.10,10.0,North,13.8,-,N/A,,Clear,10,2012-10-10 00:53:00
8:53 PM,50.0,26.1,39,30.13,10.0,North,5.8,-,N/A,,Clear,350,2012-10-10 01:53:00
9:53 PM,46.0,26.1,46,30.16,10.0,NNW,3.5,-,N/A,,Clear,330,2012-10-10 02:53:00
10:53 PM,45.0,26.1,48,30.17,10.0,NW,3.5,-,N/A,,Clear,310,2012-10-10 03:53:00
11:53 PM,44.1,25.0,47,30.19,10.0,West,4.6,-,N/A,,Clear,280,2012-10-10 04:53:00